createdAt,value
2018-03-06T00:02:20.773Z,35.53
2018-03-06T00:04:46.564Z,34.57
2018-03-06T00:07:12.319Z,34.77
2018-03-06T00:09:38.102Z,33.40
2018-03-06T00:12:03.864Z,34.53
2018-03-06T00:14:29.622Z,34.03
2018-03-06T00:16:55.378Z,35.47
2018-03-06T00:19:21.158Z,32.13
2018-03-06T00:21:47.026Z,32.90
2018-03-06T00:24:12.789Z,34.90
2018-03-06T00:26:38.568Z,33.27
2018-03-06T00:29:04.342Z,34.70
2018-03-06T00:31:30.090Z,36.63
2018-03-06T00:33:55.839Z,34.47
2018-03-06T00:36:21.612Z,35.67
2018-03-06T00:38:47.377Z,32.67
2018-03-06T00:41:13.151Z,34.77
2018-03-06T00:43:38.913Z,35.17
2018-03-06T00:46:04.674Z,35.27
2018-03-06T00:48:30.435Z,36.97
2018-03-06T00:50:56.197Z,36.13
2018-03-06T00:53:21.960Z,37.73
2018-03-06T00:55:47.699Z,36.73
2018-03-06T00:58:13.441Z,37.97
2018-03-06T01:00:39.222Z,37.60
2018-03-06T01:03:04.956Z,37.60
2018-03-06T01:05:30.713Z,36.93
2018-03-06T01:07:56.471Z,39.47
2018-03-06T01:10:22.250Z,38.53
2018-03-06T01:12:48.016Z,37.77
2018-03-06T01:15:13.789Z,38.30
2018-03-06T01:17:39.534Z,38.60
2018-03-06T01:20:05.345Z,37.23
2018-03-06T01:22:31.105Z,38.40
2018-03-06T01:24:56.884Z,39.63
2018-03-06T01:27:22.642Z,38.43
2018-03-06T01:29:48.422Z,40.60
2018-03-06T01:32:14.171Z,41.73
2018-03-06T01:34:39.954Z,38.40
2018-03-06T01:37:05.713Z,39.20
2018-03-06T01:39:31.489Z,34.83
2018-03-06T01:41:57.250Z,33.30
2018-03-06T01:44:23.010Z,35.27
2018-03-06T01:46:48.776Z,36.90
2018-03-06T01:49:14.534Z,36.30
2018-03-06T01:51:52.698Z,32.50
2018-03-06T01:54:18.440Z,33.33
2018-03-06T01:56:44.230Z,33.53
2018-03-06T01:59:09.979Z,41.03
2018-03-06T02:01:35.785Z,38.83
2018-03-06T02:04:01.559Z,34.03
2018-03-06T02:06:27.309Z,38.43
2018-03-06T02:08:53.073Z,32.40
2018-03-06T02:11:18.887Z,33.93
2018-03-06T02:13:44.649Z,31.80
2018-03-06T02:16:10.440Z,34.63
2018-03-06T02:18:36.171Z,33.90
2018-03-06T02:21:01.948Z,34.63
2018-03-06T02:23:28.058Z,36.00
2018-03-06T02:25:53.809Z,40.63
2018-03-06T02:28:19.559Z,38.07
2018-03-06T02:30:45.332Z,35.03
2018-03-06T02:33:11.075Z,35.60
2018-03-06T02:35:37.085Z,38.10
2018-03-06T02:38:02.897Z,37.65
2018-03-06T02:40:30.495Z,34.57
2018-03-06T02:42:56.289Z,34.83
2018-03-06T02:45:22.050Z,35.03
2018-03-06T02:47:47.818Z,42.63
2018-03-06T02:50:13.576Z,43.90
2018-03-06T02:52:39.356Z,37.10
2018-03-06T02:55:05.431Z,32.17
2018-03-06T02:57:31.215Z,32.65
2018-03-06T02:59:56.981Z,35.50
2018-03-06T03:02:22.754Z,31.23
2018-03-06T03:04:48.506Z,31.70
2018-03-06T03:07:14.277Z,33.67
2018-03-06T03:09:40.036Z,31.40
2018-03-06T03:12:05.814Z,31.20
2018-03-06T03:14:31.580Z,38.47
2018-03-06T03:16:57.352Z,40.53
2018-03-06T03:19:23.123Z,36.50
2018-03-06T03:21:48.898Z,38.30
2018-03-06T03:24:14.674Z,38.27
2018-03-06T03:26:40.478Z,32.50
2018-03-06T03:29:06.245Z,32.80
2018-03-06T03:31:32.016Z,36.53
2018-03-06T03:33:57.806Z,33.63
2018-03-06T03:36:23.570Z,32.83
2018-03-06T03:38:49.341Z,34.87
2018-03-06T03:41:15.107Z,37.03
2018-03-06T03:43:40.881Z,37.93
2018-03-06T03:46:06.663Z,41.53
2018-03-06T03:48:32.427Z,38.43
2018-03-06T03:50:58.207Z,39.73
2018-03-06T03:53:23.992Z,41.47
2018-03-06T03:55:49.776Z,35.37
2018-03-06T03:58:15.562Z,36.90
2018-03-06T04:00:41.337Z,40.70
2018-03-06T04:03:07.106Z,38.90
2018-03-06T04:05:32.887Z,44.00
2018-03-06T04:07:58.658Z,42.60
2018-03-06T04:10:24.433Z,48.10
2018-03-06T04:12:50.194Z,43.43
2018-03-06T04:15:15.960Z,43.93
2018-03-06T04:17:41.714Z,43.13
2018-03-06T04:20:07.460Z,45.47
2018-03-06T04:22:33.222Z,43.57
2018-03-06T04:24:58.981Z,44.43
2018-03-06T04:27:24.734Z,45.70
2018-03-06T04:29:50.490Z,49.57
2018-03-06T04:32:16.246Z,47.37
2018-03-06T04:34:42.010Z,104.13
2018-03-06T04:37:07.770Z,62.70
2018-03-06T04:39:33.547Z,50.23
2018-03-06T04:41:59.306Z,79.93
2018-03-06T04:44:25.050Z,49.00
2018-03-06T04:46:50.824Z,49.80
2018-03-06T04:49:16.584Z,56.93
2018-03-06T04:51:42.341Z,53.53
2018-03-06T04:54:08.107Z,51.77
2018-03-06T04:56:33.886Z,53.00
2018-03-06T04:58:59.642Z,54.80
2018-03-06T05:01:25.377Z,51.17
2018-03-06T05:03:51.112Z,54.87
2018-03-06T05:06:16.871Z,53.57
2018-03-06T05:08:42.623Z,55.13
2018-03-06T05:11:08.435Z,55.03
2018-03-06T05:13:34.175Z,57.77
2018-03-06T05:15:59.927Z,57.33
2018-03-06T05:18:25.658Z,58.30
2018-03-06T05:20:51.389Z,61.37
2018-03-06T05:23:17.147Z,51.97
2018-03-06T05:25:42.878Z,55.40
2018-03-06T05:28:08.602Z,58.90
2018-03-06T05:30:34.329Z,57.83
2018-03-06T05:33:00.083Z,57.27
2018-03-06T05:35:25.847Z,55.30
2018-03-06T05:37:51.597Z,57.67
2018-03-06T05:40:17.338Z,55.33
2018-03-06T05:42:43.071Z,55.93
2018-03-06T05:45:08.815Z,57.97
2018-03-06T05:47:34.597Z,54.53
2018-03-06T05:50:00.347Z,53.97
2018-03-06T05:52:26.092Z,60.03
2018-03-06T05:54:51.825Z,54.67
2018-03-06T05:57:17.554Z,56.23
2018-03-06T05:59:43.301Z,55.67
2018-03-06T06:02:09.043Z,64.07
2018-03-06T06:04:34.810Z,62.07
2018-03-06T06:07:00.544Z,87.30
2018-03-06T06:09:26.290Z,68.17
2018-03-06T06:11:52.091Z,69.47
2018-03-06T06:14:17.778Z,64.30
2018-03-06T06:16:43.515Z,63.90
2018-03-06T06:19:09.286Z,74.33
2018-03-06T06:21:35.009Z,66.13
2018-03-06T06:24:00.764Z,62.30
2018-03-06T06:26:26.486Z,64.93
2018-03-06T06:28:52.234Z,76.00
2018-03-06T06:31:17.982Z,70.73
2018-03-06T06:33:43.746Z,65.97
2018-03-06T06:36:09.486Z,62.40
2018-03-06T06:38:35.224Z,65.37
2018-03-06T06:41:00.988Z,61.10
2018-03-06T06:43:26.714Z,59.20
2018-03-06T06:45:52.455Z,63.37
2018-03-06T06:48:18.202Z,66.27
2018-03-06T06:50:43.933Z,65.00
2018-03-06T06:53:09.693Z,63.17
2018-03-06T06:55:35.496Z,62.80
2018-03-06T06:58:01.221Z,62.00
2018-03-06T07:00:26.978Z,63.83
2018-03-06T07:02:52.701Z,63.33
2018-03-06T07:05:18.468Z,65.67
2018-03-06T07:07:44.198Z,64.83
2018-03-06T07:10:09.946Z,62.43
2018-03-06T07:12:35.702Z,64.00
2018-03-06T07:15:01.439Z,60.47
2018-03-06T07:17:27.160Z,64.07
2018-03-06T07:19:52.886Z,60.67
2018-03-06T07:22:18.629Z,58.10
2018-03-06T07:24:44.369Z,56.30
2018-03-06T07:27:10.108Z,56.10
2018-03-06T07:29:35.835Z,54.50
2018-03-06T07:32:01.579Z,55.43
2018-03-06T07:34:27.302Z,54.23
2018-03-06T07:36:53.047Z,54.97
2018-03-06T07:39:18.782Z,54.03
2018-03-06T07:41:44.558Z,53.93
2018-03-06T07:44:10.332Z,52.40
2018-03-06T07:46:36.025Z,51.03
2018-03-06T07:49:01.750Z,52.90
2018-03-06T07:51:27.501Z,53.53
2018-03-06T07:53:53.245Z,49.10
2018-03-06T07:56:18.982Z,49.70
2018-03-06T07:58:44.737Z,49.13
2018-03-06T08:01:10.474Z,49.00
2018-03-06T08:03:36.212Z,47.13
2018-03-06T08:06:01.946Z,47.63
2018-03-06T08:08:27.661Z,46.33
2018-03-06T08:10:53.381Z,45.70
2018-03-06T08:13:19.114Z,44.77
2018-03-06T08:15:44.861Z,42.17
2018-03-06T08:18:10.605Z,44.83
2018-03-06T08:20:36.335Z,41.20
2018-03-06T08:23:02.062Z,43.23
2018-03-06T08:25:27.790Z,45.27
2018-03-06T08:27:53.518Z,43.53
2018-03-06T08:30:19.251Z,43.67
2018-03-06T08:32:45.765Z,42.85
2018-03-06T08:35:11.486Z,45.63
2018-03-06T08:37:37.261Z,45.03
2018-03-06T08:40:02.969Z,43.17
2018-03-06T08:42:28.702Z,42.50
2018-03-06T08:44:54.430Z,43.97
2018-03-06T08:47:20.157Z,45.37
2018-03-06T08:49:45.886Z,44.77
2018-03-06T08:52:11.635Z,43.60
2018-03-06T08:54:37.347Z,44.37
2018-03-06T08:57:03.068Z,41.40
2018-03-06T08:59:28.806Z,41.37
2018-03-06T09:01:54.544Z,43.10
2018-03-06T09:04:20.294Z,42.57
2018-03-06T09:06:46.026Z,45.20
2018-03-06T09:09:11.791Z,43.57
2018-03-06T09:11:37.560Z,42.70
2018-03-06T09:14:03.302Z,42.80
2018-03-06T09:16:29.029Z,43.53
2018-03-06T09:18:54.769Z,44.07
2018-03-06T09:21:20.501Z,44.27
2018-03-06T09:23:46.247Z,42.30
2018-03-06T09:26:11.975Z,43.13
2018-03-06T09:28:37.714Z,44.50
2018-03-06T09:31:03.454Z,42.37
2018-03-06T09:33:29.255Z,43.50
2018-03-06T09:35:54.981Z,43.93
2018-03-06T09:38:20.735Z,43.53
2018-03-06T09:40:46.467Z,43.60
2018-03-06T09:43:12.182Z,42.57
2018-03-06T09:45:37.928Z,43.30
2018-03-06T09:48:03.670Z,43.93
2018-03-06T09:50:29.394Z,42.90
2018-03-06T09:52:55.154Z,43.13
2018-03-06T09:55:20.901Z,42.60
2018-03-06T09:57:46.634Z,44.13
2018-03-06T10:00:12.355Z,41.67
2018-03-06T10:02:38.066Z,42.53
2018-03-06T10:05:03.799Z,42.93
2018-03-06T10:07:29.590Z,44.07
2018-03-06T10:09:55.375Z,42.87
2018-03-06T10:12:21.150Z,41.73
2018-03-06T10:14:46.911Z,41.50
2018-03-06T10:17:12.665Z,42.33
2018-03-06T10:19:38.431Z,40.17
2018-03-06T10:22:04.198Z,42.23
2018-03-06T10:24:30.053Z,42.87
2018-03-06T10:26:55.819Z,42.70
2018-03-06T10:29:21.611Z,42.00
2018-03-06T10:31:47.383Z,40.63
2018-03-06T10:34:13.167Z,44.63
2018-03-06T10:36:38.943Z,44.27
2018-03-06T10:39:04.758Z,45.27
2018-03-06T10:41:30.519Z,43.63
2018-03-06T10:43:56.283Z,44.60
2018-03-06T10:46:22.047Z,44.27
2018-03-06T10:48:47.816Z,43.57
2018-03-06T10:51:13.607Z,43.80
2018-03-06T10:53:39.362Z,44.57
2018-03-06T10:56:05.123Z,42.03
2018-03-06T10:58:30.901Z,43.00
2018-03-06T11:00:56.671Z,40.60
2018-03-06T11:03:22.425Z,40.57
2018-03-06T11:05:48.157Z,38.57
2018-03-06T11:08:13.935Z,40.50
2018-03-06T11:10:39.606Z,39.83
2018-03-06T11:13:05.333Z,38.40
2018-03-06T11:15:31.050Z,39.20
2018-03-06T11:17:56.765Z,39.17
2018-03-06T11:20:22.485Z,38.77
2018-03-06T11:22:48.210Z,39.17
2018-03-06T11:25:14.226Z,40.50
2018-03-06T11:27:39.966Z,39.77
2018-03-06T11:30:05.684Z,40.90
2018-03-06T11:32:31.406Z,41.60
2018-03-06T11:34:57.170Z,41.67
2018-03-06T11:37:22.890Z,41.03
2018-03-06T11:39:48.621Z,39.63
2018-03-06T11:42:14.341Z,40.47
2018-03-06T11:44:40.062Z,40.70
2018-03-06T11:47:05.777Z,42.43
2018-03-06T11:49:31.493Z,40.77
2018-03-06T11:51:57.223Z,40.70
2018-03-06T11:54:22.934Z,42.17
2018-03-06T11:56:48.669Z,40.10
2018-03-06T11:59:14.381Z,40.40
2018-03-06T12:01:40.114Z,41.13
2018-03-06T12:04:05.817Z,41.37
2018-03-06T12:06:31.549Z,45.90
2018-03-06T12:08:57.271Z,42.33
2018-03-06T12:11:22.997Z,39.83
2018-03-06T12:13:48.718Z,42.53
2018-03-06T12:16:14.455Z,41.90
2018-03-06T12:18:40.181Z,39.80
2018-03-06T12:21:05.909Z,40.13
2018-03-06T12:23:31.637Z,39.47
2018-03-06T12:25:57.350Z,42.50
2018-03-06T12:28:23.087Z,41.70
2018-03-06T12:30:48.805Z,40.20
2018-03-06T12:33:14.526Z,40.87
2018-03-06T12:35:40.239Z,39.87
2018-03-06T12:38:05.964Z,38.07
2018-03-06T12:40:31.694Z,39.47
2018-03-06T12:42:57.444Z,38.60
2018-03-06T12:45:23.145Z,37.23
2018-03-06T12:47:48.871Z,38.40
2018-03-06T12:50:14.591Z,38.77
2018-03-06T12:52:40.309Z,38.20
2018-03-06T12:55:06.048Z,39.83
2018-03-06T12:57:31.793Z,40.40
2018-03-06T12:59:57.519Z,40.73
2018-03-06T13:02:23.251Z,43.43
2018-03-06T13:04:48.970Z,42.53
2018-03-06T13:07:14.695Z,42.13
2018-03-06T13:09:40.446Z,42.10
2018-03-06T13:12:06.169Z,41.03
2018-03-06T13:14:31.910Z,42.90
2018-03-06T13:16:57.678Z,41.10
2018-03-06T13:19:23.401Z,40.83
2018-03-06T13:21:49.125Z,40.90
2018-03-06T13:24:14.838Z,42.33
2018-03-06T13:26:40.549Z,40.53
2018-03-06T13:29:06.298Z,42.33
2018-03-06T13:31:32.026Z,43.10
2018-03-06T13:33:57.776Z,42.23
2018-03-06T13:36:23.474Z,43.77
2018-03-06T13:38:49.264Z,41.67
2018-03-06T13:41:14.952Z,41.57
2018-03-06T13:43:40.709Z,40.93
2018-03-06T13:46:06.426Z,43.47
2018-03-06T13:48:32.158Z,40.23
2018-03-06T13:50:57.872Z,41.03
2018-03-06T13:53:23.603Z,41.43
2018-03-06T13:55:49.334Z,41.40
2018-03-06T13:58:15.057Z,41.37
2018-03-06T14:00:40.788Z,42.33
2018-03-06T14:03:06.503Z,42.57
2018-03-06T14:05:32.237Z,42.00
2018-03-06T14:07:57.963Z,40.97
2018-03-06T14:10:23.730Z,42.53
2018-03-06T14:12:49.465Z,42.40
2018-03-06T14:15:15.201Z,44.33
2018-03-06T14:17:40.955Z,46.27
2018-03-06T14:20:06.671Z,45.13
2018-03-06T14:22:32.389Z,45.60
2018-03-06T14:24:58.125Z,45.27
2018-03-06T14:27:23.858Z,46.20
2018-03-06T14:29:49.611Z,46.67
2018-03-06T14:32:15.389Z,44.67
2018-03-06T14:34:41.074Z,45.07
2018-03-06T14:37:06.790Z,44.10
2018-03-06T14:39:32.525Z,48.00
2018-03-06T14:41:58.246Z,50.77
2018-03-06T14:44:23.962Z,49.60
2018-03-06T14:46:49.720Z,47.27
2018-03-06T14:49:15.463Z,47.03
2018-03-06T14:51:41.190Z,49.97
2018-03-06T14:54:06.930Z,49.37
2018-03-06T14:56:32.658Z,47.80
2018-03-06T14:58:58.368Z,48.63
2018-03-06T15:01:24.094Z,46.87
2018-03-06T15:03:49.821Z,46.73
2018-03-06T15:06:15.551Z,47.87
2018-03-06T15:08:41.268Z,49.77
2018-03-06T15:11:06.998Z,47.70
2018-03-06T15:13:32.727Z,48.83
2018-03-06T15:15:58.440Z,47.63
2018-03-06T15:18:24.155Z,49.27
2018-03-06T15:20:49.889Z,48.83
2018-03-06T15:23:15.609Z,50.23
2018-03-06T15:25:41.316Z,49.70
2018-03-06T15:28:07.055Z,50.73
2018-03-06T15:30:32.782Z,50.77
2018-03-06T15:32:58.502Z,51.27
2018-03-06T15:35:24.213Z,51.93
2018-03-06T15:37:49.967Z,50.67
2018-03-06T15:40:15.705Z,51.77
2018-03-06T15:42:41.455Z,53.07
2018-03-06T15:45:07.195Z,51.00
2018-03-06T15:47:32.941Z,53.70
2018-03-06T15:49:58.645Z,52.60
2018-03-06T15:52:24.390Z,53.60
2018-03-06T15:54:50.125Z,55.10
2018-03-06T15:57:15.861Z,60.10
2018-03-06T15:59:41.574Z,64.17
2018-03-06T16:02:07.299Z,54.57
2018-03-06T16:04:33.017Z,55.33
2018-03-06T16:06:58.796Z,54.97
2018-03-06T16:09:24.493Z,55.27
2018-03-06T16:11:50.234Z,55.10
2018-03-06T16:14:15.974Z,57.27
2018-03-06T16:16:41.718Z,57.87
2018-03-06T16:19:07.446Z,57.30
2018-03-06T16:21:33.174Z,55.40
2018-03-06T16:23:58.902Z,56.53
2018-03-06T16:26:24.627Z,55.57
2018-03-06T16:28:50.366Z,57.00
2018-03-06T16:31:16.080Z,67.30
2018-03-06T16:33:41.824Z,63.10
2018-03-06T16:36:07.543Z,59.90
2018-03-06T16:38:33.316Z,62.33
2018-03-06T16:40:59.061Z,59.67
2018-03-06T16:43:24.836Z,61.17
2018-03-06T16:45:50.582Z,59.30
2018-03-06T16:48:16.332Z,58.93
2018-03-06T16:50:42.057Z,60.80
2018-03-06T16:53:07.792Z,58.43
2018-03-06T16:55:33.537Z,66.57
2018-03-06T16:57:59.264Z,60.07
2018-03-06T17:00:25.069Z,56.97
2018-03-06T17:02:50.823Z,58.67
2018-03-06T17:05:16.570Z,57.63
2018-03-06T17:07:42.340Z,59.73
2018-03-06T17:10:08.112Z,58.23
2018-03-06T17:12:33.825Z,58.07
2018-03-06T17:14:59.559Z,59.83
2018-03-06T17:17:25.286Z,61.93
2018-03-06T17:19:51.101Z,62.37
2018-03-06T17:22:16.810Z,58.97
2018-03-06T17:24:42.542Z,64.97
2018-03-06T17:27:08.262Z,61.77
2018-03-06T17:29:34.003Z,60.03
2018-03-06T17:31:59.725Z,58.30
2018-03-06T17:34:25.473Z,63.80
2018-03-06T17:36:51.182Z,61.17
2018-03-06T17:39:16.928Z,63.90
2018-03-06T17:41:42.691Z,68.03
2018-03-06T17:44:08.429Z,72.63
2018-03-06T17:46:34.166Z,76.67
2018-03-06T17:48:59.888Z,81.57
2018-03-06T17:51:25.631Z,88.40
2018-03-06T17:53:51.346Z,78.50
2018-03-06T17:56:17.083Z,71.10
2018-03-06T17:58:42.910Z,74.27
2018-03-06T18:01:08.659Z,68.97
2018-03-06T18:03:34.399Z,67.30
2018-03-06T18:06:00.137Z,64.57
2018-03-06T18:08:25.866Z,62.57
2018-03-06T18:10:51.601Z,61.27
2018-03-06T18:13:17.334Z,72.57
2018-03-06T18:15:43.050Z,236.70
2018-03-06T18:18:08.775Z,80.33
2018-03-06T18:20:34.499Z,62.33
2018-03-06T18:23:00.235Z,64.20
2018-03-06T18:25:25.955Z,64.37
2018-03-06T18:27:51.685Z,64.03
2018-03-06T18:30:17.425Z,64.33
2018-03-06T18:32:43.158Z,63.87
2018-03-06T18:35:08.865Z,65.43
2018-03-06T18:37:34.639Z,64.73
2018-03-06T18:40:00.366Z,65.40
2018-03-06T18:42:26.102Z,65.50
2018-03-06T18:44:51.837Z,66.73
2018-03-06T18:47:17.580Z,67.87
2018-03-06T18:49:55.686Z,68.30
2018-03-06T18:52:21.414Z,67.70
2018-03-06T18:54:47.142Z,67.57
2018-03-06T18:57:12.909Z,65.77
2018-03-06T18:59:38.648Z,64.87
2018-03-06T19:02:17.467Z,66.17
2018-03-06T19:04:55.687Z,62.85
2018-03-06T19:07:21.421Z,64.18
2018-03-06T19:09:47.154Z,63.57
2018-03-06T19:12:12.893Z,64.60
2018-03-06T19:14:38.631Z,63.57
2018-03-06T19:17:04.365Z,60.97
2018-03-06T19:19:30.106Z,63.67
2018-03-06T19:21:55.844Z,63.33
2018-03-06T19:24:21.606Z,65.80
2018-03-06T19:26:47.347Z,67.83
2018-03-06T19:29:13.103Z,69.33
2018-03-06T19:31:38.870Z,70.93
2018-03-06T19:34:04.647Z,73.87
2018-03-06T19:36:30.378Z,73.23
2018-03-06T19:38:56.126Z,72.57
2018-03-06T19:41:21.861Z,70.47
2018-03-06T19:43:47.606Z,70.97
2018-03-06T19:46:13.334Z,69.93
2018-03-06T19:48:39.075Z,70.97
2018-03-06T19:51:04.812Z,68.00
2018-03-06T19:53:30.605Z,68.73
2018-03-06T19:55:56.329Z,68.93
2018-03-06T19:58:22.077Z,67.70
2018-03-06T20:00:47.819Z,65.80
2018-03-06T20:03:13.561Z,68.27
2018-03-06T20:05:39.298Z,66.10
2018-03-06T20:08:05.122Z,69.70
2018-03-06T20:10:30.938Z,68.13
2018-03-06T20:12:56.689Z,69.17
2018-03-06T20:15:22.443Z,69.17
2018-03-06T20:17:48.189Z,70.27
2018-03-06T20:20:14.007Z,71.47
2018-03-06T20:22:39.725Z,69.70
2018-03-06T20:25:11.519Z,70.37
2018-03-06T20:27:37.218Z,70.20
2018-03-06T20:30:02.965Z,73.70
2018-03-06T20:32:34.937Z,73.53
2018-03-06T20:35:00.681Z,75.45
2018-03-06T20:37:26.428Z,75.77
2018-03-06T20:39:58.292Z,73.63
2018-03-06T20:42:24.018Z,74.05
2018-03-06T20:44:49.742Z,73.73
2018-03-06T20:47:21.506Z,74.83
2018-03-06T20:49:47.261Z,73.22
2018-03-06T20:52:12.986Z,79.73
2018-03-06T20:54:45.787Z,78.63
2018-03-06T20:57:11.510Z,74.18
2018-03-06T20:59:37.242Z,75.17
2018-03-06T21:02:02.963Z,74.57
2018-03-06T21:04:28.695Z,76.80
2018-03-06T21:06:54.434Z,76.90
2018-03-06T21:09:20.153Z,78.37
2018-03-06T21:11:46.041Z,76.27
2018-03-06T21:14:11.765Z,79.10
2018-03-06T21:16:37.506Z,77.20
2018-03-06T21:19:03.232Z,80.53
2018-03-06T21:21:28.978Z,81.57
2018-03-06T21:23:54.706Z,83.83
2018-03-06T21:26:20.434Z,80.97
2018-03-06T21:28:46.163Z,83.93
2018-03-06T21:31:11.895Z,80.73
2018-03-06T21:33:37.622Z,84.20
2018-03-06T21:36:03.358Z,81.60
2018-03-06T21:38:29.078Z,82.37
2018-03-06T21:40:54.806Z,83.83
2018-03-06T21:43:20.518Z,83.37
2018-03-06T21:45:46.250Z,82.67
2018-03-06T21:48:11.970Z,82.87
2018-03-06T21:50:37.702Z,83.00
2018-03-06T21:53:03.437Z,83.77
2018-03-06T21:55:29.173Z,85.20
2018-03-06T21:57:54.911Z,88.57
2018-03-06T22:00:20.638Z,91.13
2018-03-06T22:02:46.362Z,91.17
2018-03-06T22:05:12.077Z,90.07
2018-03-06T22:07:37.805Z,85.73
2018-03-06T22:10:03.534Z,87.33
2018-03-06T22:12:29.358Z,85.87
2018-03-06T22:14:55.087Z,86.97
2018-03-06T22:17:20.819Z,86.40
2018-03-06T22:19:46.594Z,87.20
2018-03-06T22:22:12.348Z,87.43
2018-03-06T22:24:38.086Z,89.43
2018-03-06T22:27:03.823Z,89.40
2018-03-06T22:29:29.550Z,91.67
2018-03-06T22:31:55.298Z,89.77
2018-03-06T22:34:21.038Z,90.20
2018-03-06T22:36:46.765Z,87.80
2018-03-06T22:39:12.511Z,91.57
2018-03-06T22:41:38.254Z,89.53
2018-03-06T22:44:03.994Z,92.40
2018-03-06T22:46:29.731Z,91.70
2018-03-06T22:48:55.487Z,93.60
2018-03-06T22:51:21.214Z,94.17
2018-03-06T22:53:46.949Z,91.83
2018-03-06T22:56:12.685Z,92.57
2018-03-06T22:58:38.422Z,94.53
2018-03-06T23:01:04.157Z,93.47
2018-03-06T23:03:29.898Z,92.17
2018-03-06T23:05:55.639Z,89.73
2018-03-06T23:08:21.374Z,93.37
2018-03-06T23:10:47.106Z,92.33
2018-03-06T23:13:12.837Z,95.00
2018-03-06T23:15:38.553Z,91.93
2018-03-06T23:18:04.291Z,93.53
2018-03-06T23:20:30.010Z,93.10
2018-03-06T23:22:55.745Z,93.50
2018-03-06T23:25:21.468Z,97.30
2018-03-06T23:27:47.194Z,97.07
2018-03-06T23:30:12.913Z,93.43
2018-03-06T23:32:38.646Z,96.47
2018-03-06T23:35:04.398Z,93.17
2018-03-06T23:37:30.117Z,96.43
2018-03-06T23:39:55.854Z,96.10
2018-03-06T23:42:21.584Z,91.70
2018-03-06T23:44:47.314Z,97.87
2018-03-06T23:47:13.053Z,96.30
2018-03-06T23:49:38.794Z,95.80
2018-03-06T23:52:04.533Z,97.07
2018-03-06T23:54:30.262Z,99.30
2018-03-06T23:56:55.990Z,98.23
2018-03-06T23:59:21.733Z,96.43
